Mountain Center, California
Current Conditions -  °F | °C
As of 7:53 PM on Thursday 18 Dec 2014 (Local Time) from KPSP Reporting Station
Clear Clear  
Wind Chill: 58°   Ceiling: Unl
Heat Index: 58°   Visibility: 10mi
Dew Point: 43°   Wind: 6mph
Humidity: 58%   Direction: 280°W
Pressure: 30.21"   Gusts: NA
Location:  33.7°N, 116.73°W
Report Text: KPSP 190353Z 28005KT 10SM CLR 14/06 A3021 RMK AO2 SLP230 T01440061
Loading
Personal Weather Stations






























Interactive Weather Map New forecast layout! Learn more

10-Day Weather Forecast

Advertisements
Track Severe Weather on mobile